Time;durP1;ratioP1;P1;durP2;ratioP2;P2;SDS_P1;SDS_P2;PMS_P1;PMS_P2;Temp;Humidity;BMP_temperature;BMP_pressure;BME280_temperature;BME280_humidity;BME280_pressure;Samples;Min_cycle;Max_cycle;Signal;HPM_P1;HPM_P2
2023/01/20 00:01:31;;;;;;;35.40;16.50;;;;;;;;;;6102387;19;20014;-78
2023/01/20 00:03:36;;;;;;;40.17;17.27;;;;;;;;;;6105715;19;20011;-77
2023/01/20 00:05:40;;;;;;;41.70;17.33;;;;;;;;;;6107016;19;20014;-76
2023/01/20 00:07:48;;;;;;;39.53;15.90;;;;;;;;;;6101498;19;20684;-76
2023/01/20 00:09:53;;;;;;;42.55;16.17;;;;;;;;;;6105590;19;20049;-77
2023/01/20 00:11:58;;;;;;;35.67;16.75;;;;;;;;;;6102923;19;20034;-77
2023/01/20 00:14:07;;;;;;;41.10;18.75;;;;;;;;;;6102227;19;20380;-78
2023/01/20 00:16:13;;;;;;;41.70;16.70;;;;;;;;;;6099498;19;20021;-77
2023/01/20 00:18:18;;;;;;;33.95;16.35;;;;;;;;;;6102144;19;20022;-76
2023/01/20 00:20:23;;;;;;;36.55;16.67;;;;;;;;;;6101504;19;20050;-76
2023/01/20 00:22:28;;;;;;;40.83;17.67;;;;;;;;;;6101360;19;20140;-76
2023/01/20 00:24:44;;;;;;;37.88;17.42;;;;;;;;;;6100925;19;20021;-73
2023/01/20 00:26:55;;;;;;;34.78;16.30;;;;;;;;;;6071531;19;20011;-72
2023/01/20 00:29:10;;;;;;;40.65;17.88;;;;;;;;;;6049502;19;20019;-76
2023/01/20 00:31:18;;;;;;;42.38;17.92;;;;;;;;;;6098352;19;20007;-76
2023/01/20 00:33:22;;;;;;;35.33;16.52;;;;;;;;;;6102566;19;20114;-76
2023/01/20 00:35:54;;;;;;;37.63;16.13;;;;;;;;;;6103569;19;20081;-72
2023/01/20 00:38:02;;;;;;;34.13;15.13;;;;;;;;;;6106435;19;20023;-72
2023/01/20 00:42:39;;;;;;;34.08;16.05;;;;;;;;;;6078853;19;20028;-71
2023/01/20 00:44:48;;;;;;;38.53;17.53;;;;;;;;;;6096234;19;20542;-72
2023/01/20 00:46:53;;;;;;;41.40;17.35;;;;;;;;;;6060994;19;20015;-72
2023/01/20 00:49:18;;;;;;;30.63;14.55;;;;;;;;;;6102300;19;20026;-72
2023/01/20 00:51:23;;;;;;;40.78;16.48;;;;;;;;;;6103759;19;20528;-76
2023/01/20 00:53:28;;;;;;;39.05;17.17;;;;;;;;;;6104015;19;20010;-77
2023/01/20 00:55:33;;;;;;;32.55;14.77;;;;;;;;;;6107322;19;20515;-77
2023/01/20 00:57:38;;;;;;;39.15;15.52;;;;;;;;;;6107168;19;20042;-76
2023/01/20 00:59:43;;;;;;;34.78;15.75;;;;;;;;;;6106498;19;20010;-78
2023/01/20 01:01:50;;;;;;;36.42;15.25;;;;;;;;;;6106228;19;20038;-77
2023/01/20 01:03:58;;;;;;;38.83;15.75;;;;;;;;;;6104870;19;20050;-73
2023/01/20 01:06:13;;;;;;;31.50;14.98;;;;;;;;;;6083075;19;20049;-72
2023/01/20 01:08:19;;;;;;;35.85;17.05;;;;;;;;;;6101701;19;20007;-73
2023/01/20 01:10:25;;;;;;;35.20;15.27;;;;;;;;;;6102428;19;20032;-72
2023/01/20 01:12:34;;;;;;;36.88;16.67;;;;;;;;;;6097246;19;20097;-72
2023/01/20 01:14:40;;;;;;;36.05;14.60;;;;;;;;;;6083648;19;20058;-73
2023/01/20 01:16:56;;;;;;;39.70;17.85;;;;;;;;;;6106743;19;20435;-73
2023/01/20 01:19:09;;;;;;;36.60;16.20;;;;;;;;;;6107828;19;20011;-72
2023/01/20 01:21:20;;;;;;;34.17;14.73;;;;;;;;;;6107527;19;20018;-72
2023/01/20 01:23:26;;;;;;;39.75;16.10;;;;;;;;;;6098268;19;20010;-70
2023/01/20 01:25:34;;;;;;;35.63;15.15;;;;;;;;;;6105152;19;20016;-71
2023/01/20 01:27:39;;;;;;;32.05;14.68;;;;;;;;;;6105746;19;20018;-76
2023/01/20 01:29:46;;;;;;;35.00;15.93;;;;;;;;;;6111295;19;20018;-76
2023/01/20 01:31:54;;;;;;;34.20;17.08;;;;;;;;;;6109770;19;20014;-76
2023/01/20 01:34:01;;;;;;;32.83;14.30;;;;;;;;;;6107938;19;20011;-72
2023/01/20 01:36:22;;;;;;;32.40;14.25;;;;;;;;;;6110260;19;20007;-72
2023/01/20 01:38:29;;;;;;;35.45;14.23;;;;;;;;;;6081244;19;20015;-73
2023/01/20 01:40:35;;;;;;;37.30;15.63;;;;;;;;;;6099375;19;20018;-77
2023/01/20 01:42:40;;;;;;;31.92;14.93;;;;;;;;;;6111869;19;20018;-77
2023/01/20 01:45:25;;;;;;;37.10;15.88;;;;;;;;;;6105917;19;20021;-77
2023/01/20 01:47:34;;;;;;;32.53;15.73;;;;;;;;;;6100603;19;20053;-76
2023/01/20 01:49:39;;;;;;;32.95;14.48;;;;;;;;;;6105949;19;20019;-77
2023/01/20 01:51:54;;;;;;;38.70;16.27;;;;;;;;;;6104527;19;20014;-73
2023/01/20 01:54:04;;;;;;;31.42;14.57;;;;;;;;;;6095122;19;20002;-72
2023/01/20 01:56:13;;;;;;;30.17;14.15;;;;;;;;;;6101764;19;20109;-72
2023/01/20 01:58:24;;;;;;;28.83;13.73;;;;;;;;;;6062527;19;20069;-73
2023/01/20 02:00:33;;;;;;;31.92;15.30;;;;;;;;;;6103120;19;20019;-73
2023/01/20 02:02:45;;;;;;;35.13;15.65;;;;;;;;;;6103274;19;20021;-71
2023/01/20 02:05:00;;;;;;;32.03;15.75;;;;;;;;;;6105731;19;20551;-72
2023/01/20 02:07:10;;;;;;;35.50;16.33;;;;;;;;;;6079354;19;20434;-78
2023/01/20 02:09:18;;;;;;;32.38;14.88;;;;;;;;;;6105354;19;20010;-76
2023/01/20 02:11:23;;;;;;;34.78;16.02;;;;;;;;;;6100451;19;20023;-78
2023/01/20 02:13:28;;;;;;;37.78;16.58;;;;;;;;;;6104198;19;20534;-78
2023/01/20 02:15:40;;;;;;;37.38;17.58;;;;;;;;;;6105442;19;20074;-76
2023/01/20 02:18:00;;;;;;;32.80;14.57;;;;;;;;;;6105611;19;20007;-75
2023/01/20 02:20:29;;;;;;;30.75;15.35;;;;;;;;;;6083710;19;20495;-77
2023/01/20 02:22:43;;;;;;;32.33;15.98;;;;;;;;;;6106911;19;20014;-73
2023/01/20 02:25:25;;;;;;;33.28;14.82;;;;;;;;;;6098116;19;20003;-73
2023/01/20 02:27:58;;;;;;;32.95;14.20;;;;;;;;;;6051276;19;20019;-74
2023/01/20 02:30:39;;;;;;;28.95;14.95;;;;;;;;;;6095145;19;20014;-74
2023/01/20 02:33:07;;;;;;;27.15;14.07;;;;;;;;;;6092597;19;20010;-72
2023/01/20 02:35:18;;;;;;;26.10;12.98;;;;;;;;;;6102386;19;20090;-72
2023/01/20 02:37:27;;;;;;;32.85;15.73;;;;;;;;;;6076047;19;20019;-76
2023/01/20 02:39:37;;;;;;;27.67;14.48;;;;;;;;;;6101297;19;20177;-76
2023/01/20 02:41:50;;;;;;;29.33;14.48;;;;;;;;;;6105608;19;20020;-76
2023/01/20 02:43:56;;;;;;;;;;;;;;;;;;6104117;19;20010;-76
2023/01/20 02:46:05;;;;;;;28.33;12.60;;;;;;;;;;6106143;19;20503;-76
2023/01/20 02:48:18;;;;;;;32.00;14.60;;;;;;;;;;6104818;19;20021;-77
2023/01/20 02:50:25;;;;;;;24.55;12.98;;;;;;;;;;6105528;19;20744;-76
2023/01/20 02:52:34;;;;;;;30.33;13.63;;;;;;;;;;6078982;19;20369;-73
2023/01/20 02:54:45;;;;;;;29.55;13.68;;;;;;;;;;6100473;19;20066;-72
2023/01/20 02:56:52;;;;;;;29.80;12.88;;;;;;;;;;6095914;19;20011;-72
2023/01/20 02:59:01;;;;;;;29.88;13.23;;;;;;;;;;6097996;19;20539;-72
2023/01/20 03:01:11;;;;;;;33.42;13.18;;;;;;;;;;6100939;19;20011;-72
2023/01/20 03:03:25;;;;;;;31.02;14.00;;;;;;;;;;6077811;19;20018;-71
2023/01/20 03:05:36;;;;;;;28.83;15.73;;;;;;;;;;6033172;19;20014;-72
2023/01/20 03:07:53;;;;;;;23.15;13.23;;;;;;;;;;6076512;19;20399;-73
2023/01/20 03:10:04;;;;;;;28.48;13.75;;;;;;;;;;6080490;19;20523;-72
2023/01/20 03:12:13;;;;;;;30.55;14.55;;;;;;;;;;6095697;19;20074;-77
2023/01/20 03:14:19;;;;;;;26.95;13.07;;;;;;;;;;6102918;19;20006;-76
2023/01/20 03:16:25;;;;;;;26.98;13.32;;;;;;;;;;6101026;19;20234;-76
2023/01/20 03:18:42;;;;;;;28.85;13.65;;;;;;;;;;6101961;19;20010;-72
2023/01/20 03:20:50;;;;;;;26.90;12.80;;;;;;;;;;6101481;19;20014;-72
2023/01/20 03:23:00;;;;;;;25.33;14.35;;;;;;;;;;6098913;19;20050;-72
2023/01/20 03:25:10;;;;;;;27.25;12.77;;;;;;;;;;6103056;19;20459;-73
2023/01/20 03:27:19;;;;;;;30.98;13.68;;;;;;;;;;6079820;19;20511;-72
2023/01/20 03:29:25;;;;;;;26.42;12.40;;;;;;;;;;6074340;19;20042;-73
2023/01/20 03:31:33;;;;;;;23.00;13.15;;;;;;;;;;6101733;19;20006;-77
2023/01/20 03:33:43;;;;;;;32.47;14.65;;;;;;;;;;6079410;19;20365;-73
2023/01/20 03:35:54;;;;;;;34.08;15.20;;;;;;;;;;6100282;19;20506;-73
2023/01/20 03:38:01;;;;;;;33.20;14.90;;;;;;;;;;6098637;19;20475;-72
2023/01/20 03:40:19;;;;;;;32.38;12.88;;;;;;;;;;6055927;19;20010;-72
2023/01/20 03:42:28;;;;;;;33.20;14.18;;;;;;;;;;6096706;19;20074;-71
2023/01/20 03:44:46;;;;;;;30.70;14.45;;;;;;;;;;6097600;19;20545;-72
2023/01/20 03:47:00;;;;;;;34.38;14.45;;;;;;;;;;6102607;19;20082;-72
2023/01/20 03:49:21;;;;;;;36.08;16.17;;;;;;;;;;6095378;19;20038;-72
2023/01/20 03:51:39;;;;;;;35.20;15.13;;;;;;;;;;6090904;19;20042;-72
2023/01/20 03:53:52;;;;;;;33.47;15.80;;;;;;;;;;6091970;19;20025;-72
2023/01/20 03:56:07;;;;;;;38.38;16.60;;;;;;;;;;6098154;19;20360;-73
2023/01/20 03:58:19;;;;;;;37.75;17.27;;;;;;;;;;6076604;19;20011;-73
2023/01/20 04:00:26;;;;;;;44.58;17.98;;;;;;;;;;6069703;19;20092;-73
2023/01/20 04:02:40;;;;;;;41.28;17.40;;;;;;;;;;6096696;19;20460;-73
2023/01/20 04:04:53;;;;;;;44.63;18.45;;;;;;;;;;6107370;19;20027;-72
2023/01/20 04:07:03;;;;;;;35.67;17.27;;;;;;;;;;6093332;19;20014;-72
2023/01/20 04:09:12;;;;;;;34.95;15.90;;;;;;;;;;6079220;19;20015;-76
2023/01/20 04:11:17;;;;;;;41.70;19.65;;;;;;;;;;6102478;19;20467;-77
2023/01/20 04:13:22;;;;;;;44.05;18.17;;;;;;;;;;6108361;19;20015;-77
2023/01/20 04:15:28;;;;;;;41.58;18.65;;;;;;;;;;6109016;19;20086;-77
2023/01/20 04:17:34;;;;;;;46.35;16.23;;;;;;;;;;6109468;19;20382;-76
2023/01/20 04:19:39;;;;;;;45.13;18.33;;;;;;;;;;6109808;19;20552;-77
2023/01/20 04:21:48;;;;;;;38.65;18.23;;;;;;;;;;6102912;19;20391;-77
2023/01/20 04:24:01;;;;;;;37.58;17.55;;;;;;;;;;6108164;19;20050;-76
2023/01/20 04:26:08;;;;;;;44.22;18.98;;;;;;;;;;6089155;19;20133;-72
2023/01/20 04:28:17;;;;;;;44.95;18.00;;;;;;;;;;6081692;19;20035;-72
2023/01/20 04:30:44;;;;;;;45.40;17.55;;;;;;;;;;6082829;19;20002;-72
2023/01/20 04:32:54;;;;;;;46.80;17.70;;;;;;;;;;6074227;19;20015;-72
2023/01/20 04:35:08;;;;;;;44.28;17.65;;;;;;;;;;6079089;19;20534;-73
2023/01/20 04:37:25;;;;;;;34.35;16.25;;;;;;;;;;6037460;19;20078;-73
2023/01/20 04:39:39;;;;;;;38.58;16.90;;;;;;;;;;6105926;19;20470;-72
2023/01/20 04:41:46;;;;;;;39.17;17.75;;;;;;;;;;6108561;19;20353;-72
2023/01/20 04:43:51;;;;;;;44.03;19.08;;;;;;;;;;6100805;19;20014;-76
2023/01/20 04:45:56;;;;;;;39.92;17.73;;;;;;;;;;6109594;19;20014;-77
2023/01/20 04:48:01;;;;;;;43.00;17.65;;;;;;;;;;6107453;19;20038;-77
2023/01/20 04:50:06;;;;;;;53.33;20.13;;;;;;;;;;6106079;19;20011;-77
2023/01/20 04:52:12;;;;;;;48.50;20.45;;;;;;;;;;6106662;19;20062;-77
2023/01/20 04:54:19;;;;;;;46.65;18.83;;;;;;;;;;6103857;19;20022;-76
2023/01/20 04:56:24;;;;;;;42.80;17.52;;;;;;;;;;6106296;19;20017;-77
2023/01/20 04:58:30;;;;;;;33.35;13.35;;;;;;;;;;6105378;19;20014;-72
2023/01/20 05:00:36;;;;;;;44.88;19.08;;;;;;;;;;6083658;19;20011;-71
2023/01/20 05:02:51;;;;;;;43.63;19.45;;;;;;;;;;6105916;19;20002;-72
2023/01/20 05:04:56;;;;;;;45.70;17.42;;;;;;;;;;6107429;19;20014;-69
2023/01/20 05:07:01;;;;;;;44.75;18.98;;;;;;;;;;6104861;19;20026;-70
2023/01/20 05:09:09;;;;;;;42.40;17.60;;;;;;;;;;6105449;19;20007;-72
2023/01/20 05:11:17;;;;;;;44.88;17.45;;;;;;;;;;6104511;19;20017;-76
2023/01/20 05:13:24;;;;;;;46.22;17.73;;;;;;;;;;6103996;19;20344;-75
2023/01/20 05:15:30;;;;;;;51.40;19.30;;;;;;;;;;6102800;19;20038;-70
2023/01/20 05:17:36;;;;;;;37.00;15.38;;;;;;;;;;6103526;19;20128;-69
2023/01/20 05:19:42;;;;;;;40.95;17.13;;;;;;;;;;6103391;19;20783;-70
2023/01/20 05:21:49;;;;;;;44.15;16.90;;;;;;;;;;6105754;19;20502;-70
2023/01/20 05:23:55;;;;;;;42.85;18.02;;;;;;;;;;6104258;19;20022;-68
2023/01/20 05:26:02;;;;;;;44.90;17.75;;;;;;;;;;6105556;19;21150;-70
2023/01/20 05:28:15;;;;;;;45.05;17.13;;;;;;;;;;6106051;19;20086;-69
2023/01/20 05:30:20;;;;;;;39.92;18.08;;;;;;;;;;6107222;19;20046;-76
2023/01/20 05:32:25;;;;;;;44.03;16.33;;;;;;;;;;6107273;19;20015;-75
2023/01/20 05:34:32;;;;;;;41.22;16.40;;;;;;;;;;6101541;19;20878;-76
2023/01/20 05:36:37;;;;;;;37.83;15.75;;;;;;;;;;6103849;19;20114;-75
2023/01/20 05:38:42;;;;;;;36.38;15.57;;;;;;;;;;6085994;19;20490;-77
2023/01/20 05:40:47;;;;;;;41.95;16.23;;;;;;;;;;6102604;19;20074;-75
2023/01/20 05:42:52;;;;;;;36.65;15.90;;;;;;;;;;6105669;19;20065;-70
2023/01/20 05:45:02;;;;;;;41.55;15.60;;;;;;;;;;6101139;19;20091;-71
2023/01/20 05:47:08;;;;;;;36.92;15.25;;;;;;;;;;6103623;19;20006;-70
2023/01/20 05:49:14;;;;;;;36.58;14.85;;;;;;;;;;6096686;19;20066;-76
2023/01/20 05:51:19;;;;;;;33.83;14.57;;;;;;;;;;6105280;19;20011;-76
2023/01/20 05:53:24;;;;;;;38.80;16.67;;;;;;;;;;6099612;19;20122;-76
2023/01/20 05:55:29;;;;;;;33.10;13.25;;;;;;;;;;6103480;19;20389;-76
2023/01/20 05:57:34;;;;;;;33.15;14.43;;;;;;;;;;6103308;19;20006;-75
2023/01/20 05:59:39;;;;;;;37.38;15.00;;;;;;;;;;6101058;19;20086;-76
2023/01/20 06:01:46;;;;;;;37.05;15.10;;;;;;;;;;6103015;19;20015;-75
2023/01/20 06:03:51;;;;;;;28.70;12.63;;;;;;;;;;6102240;19;20034;-75
2023/01/20 06:06:02;;;;;;;36.50;13.95;;;;;;;;;;6104116;19;20030;-75
2023/01/20 06:08:07;;;;;;;27.83;13.07;;;;;;;;;;6105220;19;20010;-76
2023/01/20 06:10:16;;;;;;;33.10;14.48;;;;;;;;;;6101910;19;20011;-75
2023/01/20 06:12:20;;;;;;;38.78;14.43;;;;;;;;;;6102077;19;20011;-75
2023/01/20 06:14:26;;;;;;;36.78;15.23;;;;;;;;;;6103574;19;20006;-70
2023/01/20 06:16:35;;;;;;;30.27;12.50;;;;;;;;;;6094902;19;20373;-71
2023/01/20 06:18:42;;;;;;;31.75;13.55;;;;;;;;;;6099617;19;20043;-70
2023/01/20 06:20:48;;;;;;;29.98;13.30;;;;;;;;;;6104407;19;20129;-70
2023/01/20 06:22:56;;;;;;;35.13;15.02;;;;;;;;;;6104165;19;20006;-72
2023/01/20 06:25:01;;;;;;;29.23;12.88;;;;;;;;;;6102189;19;20010;-70
2023/01/20 06:27:06;;;;;;;33.65;14.50;;;;;;;;;;6103014;19;20487;-70
2023/01/20 06:29:11;;;;;;;33.28;14.90;;;;;;;;;;6102894;19;20014;-70
2023/01/20 06:31:17;;;;;;;26.42;11.60;;;;;;;;;;6101702;19;20855;-70
2023/01/20 06:33:22;;;;;;;30.75;14.27;;;;;;;;;;6106336;19;20086;-75
2023/01/20 06:35:30;;;;;;;30.85;14.98;;;;;;;;;;6104201;19;20006;-75
2023/01/20 06:37:35;;;;;;;25.02;13.43;;;;;;;;;;6104104;19;20014;-69
2023/01/20 06:39:40;;;;;;;32.55;14.77;;;;;;;;;;6081548;19;20366;-75
2023/01/20 06:41:45;;;;;;;27.88;13.82;;;;;;;;;;6104621;19;20067;-75
2023/01/20 06:43:50;;;;;;;27.85;13.38;;;;;;;;;;6104843;19;20024;-75
2023/01/20 06:46:00;;;;;;;31.60;13.57;;;;;;;;;;6103503;19;20309;-76
2023/01/20 06:48:05;;;;;;;27.00;14.27;;;;;;;;;;6104238;19;20410;-75
2023/01/20 06:50:11;;;;;;;38.53;16.40;;;;;;;;;;6104289;19;20018;-75
2023/01/20 06:52:19;;;;;;;22.83;12.80;;;;;;;;;;6103339;19;20301;-70
2023/01/20 06:54:24;;;;;;;31.60;13.13;;;;;;;;;;6096880;19;20015;-70
2023/01/20 06:56:29;;;;;;;27.27;14.15;;;;;;;;;;6099952;19;20015;-71
2023/01/20 06:58:37;;;;;;;30.52;13.48;;;;;;;;;;6100773;19;20025;-76
2023/01/20 07:00:42;;;;;;;29.52;13.70;;;;;;;;;;6098588;19;20018;-71
2023/01/20 07:02:47;;;;;;;24.75;13.40;;;;;;;;;;6103485;19;20018;-70
2023/01/20 07:04:54;;;;;;;27.20;14.13;;;;;;;;;;6105612;19;20003;-70
2023/01/20 07:07:01;;;;;;;28.67;13.10;;;;;;;;;;6101588;19;20867;-70
2023/01/20 07:09:09;;;;;;;31.55;14.23;;;;;;;;;;6097627;19;20015;-70
2023/01/20 07:11:15;;;;;;;28.65;13.68;;;;;;;;;;6101089;19;20013;-70
2023/01/20 07:13:20;;;;;;;28.15;13.77;;;;;;;;;;6101972;19;20015;-77
2023/01/20 07:15:25;;;;;;;26.48;12.90;;;;;;;;;;6105917;19;20010;-76
2023/01/20 07:17:32;;;;;;;30.58;15.05;;;;;;;;;;6102870;19;20626;-76
2023/01/20 07:19:37;;;;;;;30.23;14.48;;;;;;;;;;6097136;19;20018;-77
2023/01/20 07:21:43;;;;;;;32.20;13.07;;;;;;;;;;6100017;19;20447;-78
2023/01/20 07:23:48;;;;;;;29.90;15.55;;;;;;;;;;6093741;19;20426;-77
2023/01/20 07:26:04;;;;;;;37.28;15.27;;;;;;;;;;6103771;19;20471;-76
2023/01/20 07:28:09;;;;;;;29.65;13.63;;;;;;;;;;6103781;19;20414;-77
2023/01/20 07:30:15;;;;;;;30.95;15.40;;;;;;;;;;6100038;19;20491;-70
2023/01/20 07:32:19;;;;;;;29.70;14.55;;;;;;;;;;6073140;19;20108;-70
2023/01/20 07:34:26;;;;;;;34.75;16.30;;;;;;;;;;6100404;19;20523;-70
2023/01/20 07:36:31;;;;;;;34.25;16.83;;;;;;;;;;6096592;19;20014;-72
2023/01/20 07:38:36;;;;;;;35.67;17.35;;;;;;;;;;6104296;19;20027;-75
2023/01/20 07:40:42;;;;;;;33.85;16.27;;;;;;;;;;6103882;19;20011;-76
2023/01/20 07:42:50;;;;;;;34.13;17.63;;;;;;;;;;6102488;19;20184;-70
2023/01/20 07:44:56;;;;;;;34.78;16.25;;;;;;;;;;6101732;19;20408;-71
2023/01/20 07:47:03;;;;;;;33.13;17.27;;;;;;;;;;6104396;19;20041;-71
2023/01/20 07:49:08;;;;;;;33.85;18.35;;;;;;;;;;6104307;19;20070;-70
2023/01/20 07:51:19;;;;;;;38.95;19.35;;;;;;;;;;6104644;19;20307;-71
2023/01/20 07:53:24;;;;;;;40.42;19.15;;;;;;;;;;6101931;19;20034;-76
2023/01/20 07:55:31;;;;;;;35.42;18.50;;;;;;;;;;6104489;19;20017;-76
2023/01/20 07:57:36;;;;;;;40.08;19.15;;;;;;;;;;6102954;19;20030;-76
2023/01/20 07:59:44;;;;;;;44.95;20.25;;;;;;;;;;6104578;19;20017;-76
2023/01/20 08:01:49;;;;;;;38.67;19.95;;;;;;;;;;6104813;19;20438;-77
2023/01/20 08:03:54;;;;;;;39.38;18.45;;;;;;;;;;6101983;19;20015;-77
2023/01/20 08:06:05;;;;;;;34.55;18.08;;;;;;;;;;6102115;19;20007;-77
2023/01/20 08:08:09;;;;;;;30.50;15.38;;;;;;;;;;6101763;19;20184;-74
2023/01/20 08:10:14;;;;;;;34.47;17.50;;;;;;;;;;6105510;19;20003;-76
2023/01/20 08:12:19;;;;;;;35.20;16.70;;;;;;;;;;6079640;19;20390;-75
2023/01/20 08:14:24;;;;;;;31.92;16.35;;;;;;;;;;6103865;19;20024;-75
2023/01/20 08:16:34;;;;;;;30.88;16.35;;;;;;;;;;6099881;19;20332;-75
2023/01/20 08:18:40;;;;;;;34.72;17.13;;;;;;;;;;6101923;19;20073;-75
2023/01/20 08:20:45;;;;;;;29.65;17.35;;;;;;;;;;6102753;19;20010;-75
2023/01/20 08:22:51;;;;;;;30.85;16.98;;;;;;;;;;6106331;19;20027;-74
2023/01/20 08:24:56;;;;;;;35.20;17.75;;;;;;;;;;6097076;19;20010;-75
2023/01/20 08:27:04;;;;;;;29.33;15.65;;;;;;;;;;6104489;19;20353;-75
2023/01/20 08:29:10;;;;;;;32.83;17.27;;;;;;;;;;6105893;19;20010;-75
2023/01/20 08:31:17;;;;;;;31.27;14.93;;;;;;;;;;6105193;19;20086;-75
2023/01/20 08:33:25;;;;;;;28.55;14.85;;;;;;;;;;6105138;19;20018;-74
2023/01/20 08:35:30;;;;;;;28.67;15.55;;;;;;;;;;6105074;19;20387;-75
2023/01/20 08:37:37;;;;;;;32.25;16.23;;;;;;;;;;6105007;19;20006;-74
2023/01/20 08:39:42;;;;;;;34.17;16.08;;;;;;;;;;6103091;19;20015;-74
2023/01/20 08:41:48;;;;;;;31.80;16.27;;;;;;;;;;6102166;19;20007;-75
2023/01/20 08:43:57;;;;;;;33.85;17.15;;;;;;;;;;6081116;19;20059;-71
2023/01/20 08:46:05;;;;;;;33.72;15.65;;;;;;;;;;6104298;19;20617;-71
2023/01/20 08:48:10;;;;;;;30.15;15.70;;;;;;;;;;6102830;19;20006;-71
2023/01/20 08:50:21;;;;;;;34.33;16.88;;;;;;;;;;6106406;19;20035;-70
2023/01/20 08:52:26;;;;;;;34.97;16.33;;;;;;;;;;6100127;19;20606;-71
2023/01/20 08:54:33;;;;;;;32.13;15.95;;;;;;;;;;6094570;19;20016;-70
2023/01/20 08:56:38;;;;;;;35.05;18.73;;;;;;;;;;6088586;19;20866;-71
2023/01/20 08:58:43;;;;;;;29.52;15.35;;;;;;;;;;6107251;19;20018;-72
2023/01/20 09:00:48;;;;;;;31.23;17.35;;;;;;;;;;6088490;19;20486;-71
2023/01/20 09:02:53;;;;;;;27.38;15.25;;;;;;;;;;6103484;19;20021;-71
2023/01/20 09:04:58;;;;;;;37.95;16.50;;;;;;;;;;6110285;19;20043;-70
2023/01/20 09:07:09;;;;;;;32.90;16.70;;;;;;;;;;6108634;19;20263;-71
2023/01/20 09:09:15;;;;;;;34.92;16.90;;;;;;;;;;6109487;19;20386;-71
2023/01/20 09:11:23;;;;;;;31.02;16.42;;;;;;;;;;6085654;19;20077;-71
2023/01/20 09:13:28;;;;;;;29.92;15.95;;;;;;;;;;6107001;19;20011;-71
2023/01/20 09:15:33;;;;;;;36.25;17.33;;;;;;;;;;6107996;19;20513;-71
2023/01/20 09:17:37;;;;;;;34.17;18.27;;;;;;;;;;6107335;19;20006;-72
2023/01/20 09:19:42;;;;;;;34.00;17.27;;;;;;;;;;6108169;19;20014;-71
2023/01/20 09:21:48;;;;;;;29.42;16.17;;;;;;;;;;6108758;19;20475;-74
2023/01/20 09:23:56;;;;;;;35.65;16.77;;;;;;;;;;6108993;19;20035;-75
2023/01/20 09:26:05;;;;;;;30.17;15.35;;;;;;;;;;6103395;19;20011;-70
2023/01/20 09:28:11;;;;;;;33.13;16.95;;;;;;;;;;6098998;19;20034;-70
2023/01/20 09:30:16;;;;;;;36.78;18.30;;;;;;;;;;6108161;19;20070;-71
2023/01/20 09:32:21;;;;;;;37.20;18.42;;;;;;;;;;6110229;19;20019;-72
2023/01/20 09:34:28;;;;;;;39.13;18.98;;;;;;;;;;6107509;19;20038;-72
2023/01/20 09:36:33;;;;;;;36.20;18.33;;;;;;;;;;6105271;19;20007;-71
2023/01/20 09:45:54;;;;;;;36.60;18.42;;;;;;;;;;6108271;19;20047;-75
2023/01/20 09:48:05;;;;;;;29.52;16.48;;;;;;;;;;6108913;19;20697;-75
2023/01/20 09:53:00;;;;;;;37.28;17.13;;;;;;;;;;6100484;19;20724;-74
2023/01/20 09:55:13;;;;;;;41.35;19.52;;;;;;;;;;6108650;19;20013;-74
2023/01/20 09:57:23;;;;;;;38.80;17.83;;;;;;;;;;6106024;19;20021;-75
2023/01/20 09:59:32;;;;;;;36.33;18.13;;;;;;;;;;6108512;19;20479;-75
2023/01/20 10:01:41;;;;;;;36.95;16.90;;;;;;;;;;6108769;19;20010;-76
2023/01/20 10:03:50;;;;;;;32.30;16.92;;;;;;;;;;6105134;19;20042;-76
2023/01/20 10:05:57;;;;;;;41.05;19.35;;;;;;;;;;6104241;19;20019;-76
2023/01/20 10:08:07;;;;;;;36.50;20.23;;;;;;;;;;6107454;19;20017;-77
2023/01/20 10:10:17;;;;;;;34.28;18.13;;;;;;;;;;6105332;19;20700;-76
2023/01/20 10:12:29;;;;;;;39.30;20.25;;;;;;;;;;6107227;19;20453;-75
2023/01/20 10:14:36;;;;;;;42.78;20.23;;;;;;;;;;6105814;19;20046;-75
2023/01/20 10:16:45;;;;;;;41.47;19.20;;;;;;;;;;6108171;19;20011;-75
2023/01/20 10:18:55;;;;;;;41.88;20.33;;;;;;;;;;6104555;19;20023;-72
2023/01/20 10:21:03;;;;;;;38.95;19.48;;;;;;;;;;6105813;19;20035;-71
2023/01/20 10:23:11;;;;;;;39.92;19.17;;;;;;;;;;6106696;19;20436;-71
2023/01/20 10:25:19;;;;;;;37.28;18.00;;;;;;;;;;6110016;19;20014;-71
2023/01/20 10:27:30;;;;;;;37.58;17.27;;;;;;;;;;6108935;19;20019;-71
2023/01/20 10:29:37;;;;;;;38.97;18.80;;;;;;;;;;6110187;19;20451;-71
2023/01/20 10:31:46;;;;;;;37.88;18.63;;;;;;;;;;6107074;19;20039;-71
2023/01/20 10:33:52;;;;;;;38.80;18.00;;;;;;;;;;6106632;19;20007;-71
2023/01/20 10:35:59;;;;;;;36.67;18.35;;;;;;;;;;6106435;19;20086;-71
2023/01/20 10:38:05;;;;;;;35.00;17.90;;;;;;;;;;6106112;19;20014;-76
2023/01/20 10:40:21;;;;;;;38.80;17.98;;;;;;;;;;6106520;19;20014;-72
2023/01/20 10:42:29;;;;;;;37.30;17.40;;;;;;;;;;6107786;19;20043;-70
2023/01/20 10:44:36;;;;;;;39.40;18.13;;;;;;;;;;6102116;19;20014;-71
2023/01/20 10:46:55;;;;;;;39.08;19.92;;;;;;;;;;6107627;19;20070;-71
2023/01/20 10:49:24;;;;;;;41.08;20.17;;;;;;;;;;6106102;19;20013;-70
2023/01/20 10:51:34;;;;;;;43.40;20.38;;;;;;;;;;6105853;19;20011;-70
2023/01/20 10:53:53;;;;;;;46.85;19.48;;;;;;;;;;6102512;19;20018;-75
2023/01/20 10:56:14;;;;;;;38.45;19.83;;;;;;;;;;6105748;19;20475;-71
2023/01/20 10:58:25;;;;;;;40.25;19.70;;;;;;;;;;6104799;19;20485;-70
2023/01/20 11:00:33;;;;;;;46.50;21.50;;;;;;;;;;6100266;19;20060;-71
2023/01/20 11:02:38;;;;;;;43.92;19.10;;;;;;;;;;6105026;19;20007;-71
2023/01/20 11:04:44;;;;;;;40.85;19.58;;;;;;;;;;6103677;19;20632;-76
2023/01/20 11:06:51;;;;;;;41.13;19.83;;;;;;;;;;6105129;19;21086;-76
2023/01/20 11:08:56;;;;;;;44.90;20.13;;;;;;;;;;6105856;19;20014;-77
2023/01/20 11:11:11;;;;;;;40.33;18.48;;;;;;;;;;6106228;19;20023;-77
2023/01/20 11:13:24;;;;;;;36.75;17.98;;;;;;;;;;6105401;19;20011;-76
2023/01/20 11:15:31;;;;;;;40.30;18.92;;;;;;;;;;6103887;19;20046;-75
2023/01/20 11:17:36;;;;;;;37.88;16.20;;;;;;;;;;6080328;19;20405;-76
2023/01/20 11:19:53;;;;;;;38.75;18.25;;;;;;;;;;6100904;19;20495;-75
2023/01/20 11:22:01;;;;;;;36.63;16.40;;;;;;;;;;6104958;19;20463;-76
2023/01/20 11:24:10;;;;;;;39.90;18.25;;;;;;;;;;6104500;19;20007;-76
2023/01/20 11:26:21;;;;;;;32.55;15.85;;;;;;;;;;6105179;19;20006;-77
2023/01/20 11:28:46;;;;;;;28.42;14.90;;;;;;;;;;6106590;19;20034;-78
2023/01/20 11:30:53;;;;;;;26.80;13.18;;;;;;;;;;6102271;19;20011;-76
2023/01/20 11:33:18;;;;;;;24.70;12.02;;;;;;;;;;6105857;19;20474;-76
2023/01/20 11:35:25;;;;;;;18.83;8.32;;;;;;;;;;6105429;19;20010;-76
2023/01/20 11:37:38;;;;;;;12.57;7.35;;;;;;;;;;6106814;19;20407;-69
2023/01/20 11:39:45;;;;;;;12.85;7.47;;;;;;;;;;6105736;19;20015;-76
2023/01/20 11:41:50;;;;;;;11.98;5.07;;;;;;;;;;6102312;19;20014;-76
2023/01/20 11:44:02;;;;;;;12.43;6.22;;;;;;;;;;6106797;19;20127;-77
2023/01/20 11:46:27;;;;;;;11.50;4.07;;;;;;;;;;6104577;19;20016;-71
2023/01/20 11:48:32;;;;;;;8.40;3.35;;;;;;;;;;6097287;19;20046;-77
2023/01/20 11:50:38;;;;;;;6.88;2.97;;;;;;;;;;6103660;19;20014;-77
2023/01/20 11:52:46;;;;;;;8.95;3.00;;;;;;;;;;6102210;19;20011;-70
2023/01/20 11:55:09;;;;;;;5.57;2.55;;;;;;;;;;6103037;19;20015;-70
2023/01/20 11:57:18;;;;;;;9.18;4.20;;;;;;;;;;6102733;19;20014;-77
2023/01/20 11:59:29;;;;;;;6.50;3.85;;;;;;;;;;6103490;19;20419;-70
2023/01/20 12:01:55;;;;;;;7.10;2.80;;;;;;;;;;6104027;19;20097;-70
2023/01/20 12:04:16;;;;;;;7.70;2.25;;;;;;;;;;6105077;19;20011;-71
2023/01/20 12:06:24;;;;;;;2.63;2.10;;;;;;;;;;6105094;19;20465;-71
2023/01/20 12:08:34;;;;;;;5.78;2.50;;;;;;;;;;6098648;19;20082;-70
2023/01/20 12:10:39;;;;;;;3.50;1.80;;;;;;;;;;6102506;19;20082;-70
2023/01/20 12:12:48;;;;;;;5.55;2.05;;;;;;;;;;6102565;19;20102;-70
2023/01/20 12:15:04;;;;;;;4.88;1.75;;;;;;;;;;6104680;19;20021;-71
2023/01/20 12:17:17;;;;;;;3.85;1.80;;;;;;;;;;6103351;19;20010;-71
2023/01/20 12:19:26;;;;;;;3.50;1.98;;;;;;;;;;6101686;19;20029;-72
2023/01/20 12:21:36;;;;;;;4.57;1.95;;;;;;;;;;6101623;19;20011;-71
2023/01/20 12:23:49;;;;;;;4.32;2.10;;;;;;;;;;6102222;19;20028;-71
2023/01/20 12:25:57;;;;;;;3.45;2.13;;;;;;;;;;6104694;19;20562;-71
2023/01/20 12:28:06;;;;;;;2.42;1.67;;;;;;;;;;6106769;19;20018;-74
2023/01/20 12:30:25;;;;;;;4.45;1.80;;;;;;;;;;6110705;19;20043;-77
2023/01/20 12:32:39;;;;;;;4.57;2.05;;;;;;;;;;6107743;19;20061;-75
2023/01/20 12:34:43;;;;;;;4.13;2.43;;;;;;;;;;6112368;19;20034;-77
2023/01/20 12:36:56;;;;;;;4.82;2.08;;;;;;;;;;6114875;19;20031;-77
2023/01/20 12:39:11;;;;;;;;;;;;;;;;;;6113654;19;20014;-76
2023/01/20 12:41:35;;;;;;;6.18;2.78;;;;;;;;;;6112192;19;19934;-76
2023/01/20 12:43:54;;;;;;;4.93;2.50;;;;;;;;;;6110146;19;20015;-75
2023/01/20 12:46:12;;;;;;;7.70;3.50;;;;;;;;;;6109365;19;20090;-75
2023/01/20 12:48:29;;;;;;;9.02;4.18;;;;;;;;;;6109387;19;20042;-77